Terminal Aerodrome Forecast
Issued by NWS

Home | Current Version | Previous Version | Text Only | Print | Product List | Glossary On
Versions: 1 2 3 4 5 6 7 8 9 10 11 12 13
119
FTUS44 KMAF 131131
TAFINK
TAF
KINK 131131Z 1312/1412 25007KT P6SM SCT250
     FM140500 35009KT P6SM SCT200=

USA.gov is the U.S. government's official web portal to all federal, state and local government web resources and services.